Parker, North Carolina
Current Conditions -  °F | °C
As of 1:55 AM on Friday 28 Nov 2014 (Local Time) from KGEV Reporting Station
Light Snow Light Snow  
Wind Chill: 10°   Ceiling: 2300
Heat Index: 23°   Visibility: 10mi
Dew Point: 13°   Wind: 14mph
Humidity: 65%   Direction: 310°NW
Pressure: 30.18"   Gusts: 23mph
Location:  36.4481°N, 81.6486°W
Report Text: KGEV 280655Z AUTO 31012G20KT 270V350 10SM -SN OVC023 M05/M11 A3018 RMK AO2 T10511107
Loading
Personal Weather Stations






























Interactive Weather Map New forecast layout! Learn more

10-Day Weather Forecast

Advertisements
Track Severe Weather on mobile